Details From SCBA - Balmaceda
To SCTE - El Tepual
Flight Number -
Tags decoded
Created
Modified
Stats Distance 276 nm / 511 km
Max Altitude 0 ft / 0 m
Waypoints 5
Social Downloads 2
Likes 0
Share VATSIM

Download

Looking for another format? Having issues loading an existing format? Contact us
Advertisement - Login to hide

Notes

Requested: SCBA ARGOS ISLAB GUTIN SILAS SCTE Unmatched points: ISLAB

Route

SCBA ARGOS GUTIN SILAS SCTE

ID Type Via Altitude Latitude Longitude Leg Dist Tot Dist Heading (true) Name
O SCBA APT - 0 ft / 0 m -45.91602˚ -71.68947˚ - 0 nm - Balmaceda
ARGOS FIX - 0 ft / 0 m -45.26121˚ -71.91066˚ 40 nm 40 nm 347° / 347° -
GUTIN FIX - 0 ft / 0 m -42.40667˚ -72.81250˚ 175 nm 216 nm 347° / 347° -
SILAS FIX - 0 ft / 0 m -41.61670˚ -73.10028˚ 49 nm 265 nm 345° / 345° -
O SCTE APT - 0 ft / 0 m -41.43888˚ -73.09395˚ 10 nm 276 nm 2° / 2° El Tepual

Altitude Profile

Advertisement - Login to hide

Weather


0- 5 10 15 20 25 30 35+ Temperature / ° C

Clouds and Precipitation
Forecast for 2017-12-18 18:00 UTC. Updated a few seconds ago

Ground ~20,000 ft ~40,000 ft Winds

SCBA

Details ICAO SCBA (BBA)
Name Balmaceda
Region Chile
Timezone America/Santiago (UTC-3.0)
Stats Elevation 1,654 ft / 504 m (AMSL)
Location -45.916025° -71.689470°
Runways 1
Magnetic Variation 9.886° E

METAR

SCBA 181700Z 31026G38KT 9999 FEW030 SCT200 16/04 Q1013

Decode

TAF

TAF SCBA 181034Z 1812/1912 30020G30KT CAVOK TN07/1812Z TX14/1819Z

Decode

Departure Runways

ID Width Length Bearing (true) Bearing (mag) Surface Threshold Offset Overrun Length
09 148 ft / 45 m 8,213 ft / 2,503 m 89.01° 79.12° Asphalt 0 ft / 0 m 180 ft / 55 m
27 148 ft / 45 m 8,213 ft / 2,503 m 268.99° 259.10° Asphalt 0 ft / 0 m 190 ft / 58 m

SCTE

Details ICAO SCTE (PMC)
Name El Tepual
Region Chile
Timezone America/Santiago (UTC-3.0)
Stats Elevation 293 ft / 89 m (AMSL)
Location -41.438884° -73.093954°
Runways 1
Magnetic Variation 8.486° E

METAR

SCTE 181700Z 15012KT 110V190 CAVOK 17/06 Q1019 NOSIG

Decode

TAF

TAF SCTE 181032Z 1812/1912 23005KT 9999 FEW010 TX18/1819Z TN05/1910Z BECMG 1815/1817 22010KT BECMG 1902/1904 VRB02KT

Decode

Destination Runways

ID Width Length Bearing (true) Bearing (mag) Surface Threshold Offset Overrun Length
17 148 ft / 45 m 8,702 ft / 2,652 m 172.00° 163.51° Concrete 0 ft / 0 m 0 ft / 0 m
35 148 ft / 45 m 8,702 ft / 2,652 m 352.00° 343.51° Concrete 0 ft / 0 m 0 ft / 0 m

Approach Navaids

Runway Type Ident Frequency Range Bearing (true) Bearing (mag) Slope Elevation
35 Localiser IMON 110.10 MHz 18 nm / 33 km 351.94° 343.46° - 293 ft / 89 m (AMSL)
35 Glidescope IMON 110.10 MHz 10 nm / 19 km 352.00° 343.51° 3.00° 293 ft / 89 m (AMSL)
35 DME IMON 115.70 MHz 18 nm / 33 km - - - 293 ft / 89 m (AMSL)

Popular Alternatives